createdAt,value
2023-06-07T00:01:09.483Z,4.82
2023-06-07T00:06:11.660Z,4.90
2023-06-07T00:11:14.463Z,4.93
2023-06-07T00:16:16.081Z,5.30
2023-06-07T00:21:20.997Z,4.78
2023-06-07T00:26:22.695Z,4.90
2023-06-07T00:31:26.350Z,4.53
2023-06-07T00:36:29.790Z,5.10
2023-06-07T00:41:31.673Z,4.55
2023-06-07T00:46:33.416Z,4.90
2023-06-07T00:51:35.985Z,4.43
2023-06-07T00:56:37.810Z,4.72
2023-06-07T01:01:40.561Z,4.82
2023-06-07T01:06:42.173Z,4.05
2023-06-07T01:11:47.824Z,5.10
2023-06-07T01:16:51.994Z,4.35
2023-06-07T01:22:08.128Z,4.35
2023-06-07T01:27:11.374Z,4.82
2023-06-07T01:32:14.968Z,4.50
2023-06-07T01:37:17.311Z,4.40
2023-06-07T01:42:22.384Z,4.75
2023-06-07T01:47:24.278Z,4.45
2023-06-07T01:52:25.920Z,4.60
2023-06-07T01:57:53.632Z,4.38
2023-06-07T02:03:11.364Z,4.43
2023-06-07T02:08:30.257Z,4.60
2023-06-07T02:13:37.869Z,4.03
2023-06-07T02:18:42.236Z,4.57
2023-06-07T02:23:44.073Z,4.10
2023-06-07T02:28:46.130Z,4.85
2023-06-07T02:33:49.355Z,3.67
2023-06-07T02:38:51.285Z,4.57
2023-06-07T02:43:52.868Z,4.47
2023-06-07T02:48:54.640Z,4.30
2023-06-07T02:54:01.607Z,4.00
2023-06-07T02:59:04.242Z,4.30
2023-06-07T03:04:10.935Z,4.05
2023-06-07T03:09:16.833Z,3.53
2023-06-07T03:14:20.634Z,4.05
2023-06-07T03:19:24.431Z,4.75
2023-06-07T03:24:29.916Z,3.70
2023-06-07T03:29:31.922Z,4.03
2023-06-07T03:34:34.323Z,3.22
2023-06-07T03:39:38.788Z,3.65
2023-06-07T03:44:40.801Z,3.67
2023-06-07T03:49:44.285Z,3.63
2023-06-07T03:54:46.562Z,3.22
2023-06-07T03:59:48.368Z,2.88
2023-06-07T04:04:53.760Z,3.40
2023-06-07T04:09:56.152Z,3.95
2023-06-07T04:15:00.035Z,3.60
2023-06-07T04:20:05.197Z,3.22
2023-06-07T04:25:08.737Z,2.95
2023-06-07T04:30:11.801Z,3.08
2023-06-07T04:35:15.658Z,2.88
2023-06-07T04:40:19.625Z,3.28
2023-06-07T04:45:30.484Z,2.85
2023-06-07T04:50:32.253Z,3.40
2023-06-07T04:55:36.538Z,3.03
2023-06-07T05:00:40.843Z,2.75
2023-06-07T05:05:47.815Z,2.90
2023-06-07T05:10:51.167Z,3.95
2023-06-07T05:15:54.282Z,2.95
2023-06-07T05:20:56.773Z,3.38
2023-06-07T05:26:00.217Z,3.20
2023-06-07T05:31:02.782Z,3.47
2023-06-07T05:36:06.528Z,3.13
2023-06-07T05:41:10.256Z,3.17
2023-06-07T05:46:12.345Z,3.83
2023-06-07T05:51:16.085Z,3.63
2023-06-07T05:56:19.905Z,3.70
2023-06-07T06:01:21.912Z,3.25
2023-06-07T06:06:25.136Z,3.15
2023-06-07T06:11:27.081Z,2.67
2023-06-07T06:16:29.869Z,2.70
2023-06-07T06:21:31.583Z,2.83
2023-06-07T06:26:33.627Z,3.15
2023-06-07T06:31:37.807Z,3.30
2023-06-07T06:36:39.715Z,4.03
2023-06-07T06:41:41.602Z,3.08
2023-06-07T06:46:51.982Z,4.20
2023-06-07T06:51:53.794Z,3.90
2023-06-07T06:56:56.090Z,3.17
2023-06-07T07:01:59.063Z,3.58
2023-06-07T07:07:02.217Z,3.45
2023-06-07T07:12:04.338Z,2.90
2023-06-07T07:17:06.364Z,2.92
2023-06-07T07:22:09.337Z,3.50
2023-06-07T07:27:11.664Z,3.42
2023-06-07T07:32:13.282Z,3.80
2023-06-07T07:37:15.569Z,3.20
2023-06-07T07:42:17.260Z,3.13
2023-06-07T07:47:19.105Z,3.38
2023-06-07T07:52:22.628Z,3.50
2023-06-07T07:57:24.643Z,3.45
2023-06-07T08:02:26.996Z,3.90
2023-06-07T08:07:30.815Z,3.50
2023-06-07T08:12:35.024Z,4.03
2023-06-07T08:17:37.165Z,3.63
2023-06-07T08:22:43.103Z,4.45
2023-06-07T08:27:44.806Z,3.88
2023-06-07T08:32:47.230Z,3.70
2023-06-07T08:37:50.781Z,4.57
2023-06-07T08:42:52.513Z,3.88
2023-06-07T08:47:55.817Z,3.72
2023-06-07T08:53:03.718Z,6.00
2023-06-07T08:58:08.342Z,4.75
2023-06-07T09:03:13.044Z,3.42
2023-06-07T09:08:14.769Z,3.60
2023-06-07T09:13:23.239Z,3.95
2023-06-07T09:18:41.785Z,4.05
2023-06-07T09:23:43.706Z,4.22
2023-06-07T09:28:47.294Z,3.80
2023-06-07T09:33:50.548Z,3.88
2023-06-07T09:38:52.212Z,4.22
2023-06-07T09:44:00.271Z,4.15
2023-06-07T09:49:03.049Z,3.93
2023-06-07T09:54:07.009Z,5.97
2023-06-07T09:59:15.801Z,4.15
2023-06-07T10:04:18.057Z,4.20
2023-06-07T10:09:21.885Z,4.28
2023-06-07T10:14:33.370Z,4.85
2023-06-07T10:19:42.813Z,5.28
2023-06-07T10:25:05.567Z,5.50
2023-06-07T10:30:12.263Z,4.75
2023-06-07T10:35:15.904Z,5.10
2023-06-07T10:40:17.964Z,5.10
2023-06-07T10:45:21.361Z,4.53
2023-06-07T10:50:31.893Z,4.20
2023-06-07T10:55:33.868Z,4.38
2023-06-07T11:00:36.611Z,4.40
2023-06-07T11:05:54.306Z,4.25
2023-06-07T11:11:02.972Z,4.85
2023-06-07T11:16:27.296Z,5.07
2023-06-07T11:21:51.153Z,5.35
2023-06-07T11:26:53.504Z,5.70
2023-06-07T11:32:02.987Z,5.47
2023-06-07T11:37:13.049Z,5.57
2023-06-07T11:42:14.885Z,5.20
2023-06-07T11:47:16.558Z,5.30
2023-06-07T11:52:20.216Z,5.88
2023-06-07T11:57:23.690Z,6.35
2023-06-07T12:02:26.982Z,5.68
2023-06-07T12:07:32.653Z,5.53
2023-06-07T12:12:34.985Z,5.32
2023-06-07T12:17:37.193Z,5.55
2023-06-07T12:22:40.109Z,8.00
2023-06-07T12:27:46.781Z,6.15
2023-06-07T12:32:51.775Z,6.30
2023-06-07T12:37:56.254Z,5.65
2023-06-07T12:42:58.335Z,5.47
2023-06-07T12:48:00.097Z,6.00
2023-06-07T12:53:02.664Z,5.70
2023-06-07T12:58:04.328Z,5.55
2023-06-07T13:03:06.332Z,5.18
2023-06-07T13:08:08.085Z,4.93
2023-06-07T13:13:10.013Z,5.30
2023-06-07T13:18:11.752Z,5.88
2023-06-07T13:23:13.787Z,3.17
2023-06-07T13:28:16.506Z,3.83
2023-06-07T13:33:19.859Z,5.68
2023-06-07T13:38:21.750Z,5.28
2023-06-07T13:43:31.009Z,6.05
2023-06-07T13:48:45.302Z,4.70
2023-06-07T13:53:47.346Z,5.85
2023-06-07T13:58:49.299Z,6.00
2023-06-07T14:03:51.156Z,5.53
2023-06-07T14:08:52.858Z,5.60
2023-06-07T14:13:54.492Z,5.60
2023-06-07T14:18:56.507Z,6.10
2023-06-07T14:23:59.956Z,5.88
2023-06-07T14:29:01.606Z,4.68
2023-06-07T14:34:03.291Z,6.43
2023-06-07T14:39:04.949Z,5.95
2023-06-07T14:44:07.981Z,5.78
2023-06-07T14:49:09.695Z,6.60
2023-06-07T14:54:11.398Z,5.88
2023-06-07T14:59:14.275Z,6.20
2023-06-07T15:04:16.246Z,5.53
2023-06-07T15:09:18.347Z,4.30
2023-06-07T15:14:20.110Z,5.65
2023-06-07T15:19:21.814Z,5.75
2023-06-07T15:24:23.605Z,5.45
2023-06-07T15:29:25.795Z,6.15
2023-06-07T15:34:30.258Z,5.35
2023-06-07T15:39:33.407Z,4.95
2023-06-07T15:44:35.508Z,6.00
2023-06-07T15:49:37.626Z,6.47
2023-06-07T15:54:39.772Z,5.22
2023-06-07T15:59:41.498Z,5.80
2023-06-07T16:04:43.186Z,7.18
2023-06-07T16:09:44.887Z,6.88
2023-06-07T16:14:46.561Z,5.65
2023-06-07T16:19:48.222Z,5.90
2023-06-07T16:24:49.878Z,6.20
2023-06-07T16:29:51.780Z,5.75
2023-06-07T16:34:53.530Z,6.32
2023-06-07T16:39:56.338Z,7.53
2023-06-07T16:44:59.586Z,5.93
2023-06-07T16:50:01.226Z,6.47
2023-06-07T16:55:03.312Z,5.53
2023-06-07T17:00:06.518Z,7.63
2023-06-07T17:05:08.912Z,6.53
2023-06-07T17:10:10.873Z,6.72
2023-06-07T17:15:12.647Z,6.22
2023-06-07T17:20:14.535Z,7.15
2023-06-07T17:25:16.219Z,7.00
2023-06-07T17:30:18.058Z,5.63
2023-06-07T17:35:19.903Z,6.25
2023-06-07T17:40:25.068Z,7.75
2023-06-07T17:45:29.650Z,5.05
2023-06-07T17:50:46.582Z,6.68
2023-06-07T17:56:01.905Z,6.70
2023-06-07T18:01:05.765Z,6.65
2023-06-07T18:06:09.835Z,5.90
2023-06-07T18:11:12.229Z,7.93
2023-06-07T18:16:14.466Z,6.43
2023-06-07T18:21:16.548Z,5.80
2023-06-07T18:26:18.251Z,5.65
2023-06-07T18:31:20.092Z,5.40
2023-06-07T18:36:21.796Z,6.60
2023-06-07T18:41:23.502Z,5.50
2023-06-07T18:46:25.301Z,6.15
2023-06-07T18:51:27.600Z,5.90
2023-06-07T18:56:29.891Z,6.78
2023-06-07T19:01:46.496Z,5.95
2023-06-07T19:06:56.573Z,5.47
2023-06-07T19:12:01.564Z,6.30
2023-06-07T19:17:03.835Z,5.28
2023-06-07T19:22:08.994Z,4.93
2023-06-07T19:27:11.999Z,5.18
2023-06-07T19:32:15.103Z,5.43
2023-06-07T19:37:18.109Z,5.40
2023-06-07T19:42:21.204Z,5.43
2023-06-07T19:47:23.716Z,4.70
2023-06-07T19:52:29.974Z,6.32
2023-06-07T19:57:31.811Z,5.40
2023-06-07T20:02:34.616Z,5.07
2023-06-07T20:07:36.527Z,4.88
2023-06-07T20:12:38.904Z,5.72
2023-06-07T20:17:40.780Z,5.97
2023-06-07T20:22:42.503Z,5.03
2023-06-07T20:27:44.115Z,5.35
2023-06-07T20:32:47.357Z,5.13
2023-06-07T20:37:50.295Z,4.70
2023-06-07T20:42:53.279Z,5.40
2023-06-07T20:47:55.044Z,5.35
2023-06-07T20:52:56.730Z,6.75
2023-06-07T20:57:59.473Z,6.32
2023-06-07T21:03:01.259Z,6.28
2023-06-07T21:08:02.926Z,5.90
2023-06-07T21:13:04.713Z,5.15
2023-06-07T21:18:06.752Z,6.10
2023-06-07T21:23:12.175Z,5.50
2023-06-07T21:28:16.427Z,5.55
2023-06-07T21:33:21.562Z,5.28
2023-06-07T21:38:23.205Z,5.57
2023-06-07T21:43:24.897Z,5.45
2023-06-07T21:48:26.584Z,5.97
2023-06-07T21:53:29.179Z,5.30
2023-06-07T21:58:30.881Z,5.93
2023-06-07T22:03:33.177Z,7.05
2023-06-07T22:08:34.806Z,6.43
2023-06-07T22:13:39.886Z,6.20
2023-06-07T22:18:41.770Z,6.05
2023-06-07T22:23:43.431Z,5.85
2023-06-07T22:28:45.725Z,5.57
2023-06-07T22:33:47.363Z,5.82
2023-06-07T22:38:49.032Z,5.70
2023-06-07T22:43:50.699Z,6.63
2023-06-07T22:48:53.906Z,6.68
2023-06-07T22:53:56.251Z,6.63
2023-06-07T22:58:58.314Z,6.65
2023-06-07T23:04:01.989Z,7.30
2023-06-07T23:09:05.116Z,6.03
2023-06-07T23:14:08.111Z,6.55
2023-06-07T23:19:09.788Z,6.68
2023-06-07T23:24:13.004Z,7.00
2023-06-07T23:29:15.180Z,6.20
2023-06-07T23:34:16.863Z,7.22
2023-06-07T23:39:18.582Z,6.82
2023-06-07T23:44:25.142Z,7.40
2023-06-07T23:49:32.389Z,7.57
2023-06-07T23:54:34.226Z,5.65
2023-06-07T23:59:38.169Z,6.93
